createdAt,value
2023-08-23T00:01:27.796Z,53.31
2023-08-23T00:04:00.926Z,53.21
2023-08-23T00:06:33.479Z,53.25
2023-08-23T00:09:06.582Z,53.36
2023-08-23T00:11:39.396Z,53.29
2023-08-23T00:14:12.318Z,53.27
2023-08-23T00:16:44.736Z,53.39
2023-08-23T00:19:17.594Z,53.43
2023-08-23T00:21:50.229Z,53.52
2023-08-23T00:24:23.021Z,53.51
2023-08-23T00:26:58.254Z,53.61
2023-08-23T00:29:30.999Z,53.74
2023-08-23T00:32:03.810Z,53.73
2023-08-23T00:34:36.895Z,53.76
2023-08-23T00:37:09.538Z,53.72
2023-08-23T00:39:42.721Z,53.92
2023-08-23T00:42:15.512Z,53.89
2023-08-23T00:44:48.545Z,54.01
2023-08-23T00:47:21.252Z,53.88
2023-08-23T00:49:54.755Z,53.96
2023-08-23T00:52:33.558Z,54.12
2023-08-23T00:55:11.009Z,54.21
2023-08-23T00:57:43.429Z,54.11
2023-08-23T01:00:20.251Z,54.10
2023-08-23T01:02:53.674Z,53.98
2023-08-23T01:05:31.073Z,54.11
2023-08-23T01:08:11.827Z,54.28
2023-08-23T01:10:49.187Z,54.31
2023-08-23T01:13:29.738Z,54.45
2023-08-23T01:16:02.903Z,54.43
2023-08-23T01:18:35.503Z,54.38
2023-08-23T01:21:12.019Z,54.49
2023-08-23T01:23:46.163Z,54.63
2023-08-23T01:26:18.546Z,54.54
2023-08-23T01:28:52.673Z,54.58
2023-08-23T01:31:28.020Z,54.55
2023-08-23T01:34:10.608Z,54.45
2023-08-23T01:36:45.263Z,54.48
2023-08-23T01:39:18.452Z,54.55
2023-08-23T01:41:51.725Z,54.50
2023-08-23T01:44:24.740Z,54.62
2023-08-23T01:46:57.832Z,54.65
2023-08-23T01:49:30.285Z,54.67
2023-08-23T01:52:02.790Z,54.74
2023-08-23T01:54:35.310Z,54.66
2023-08-23T01:57:08.374Z,54.72
2023-08-23T01:59:41.527Z,54.67
2023-08-23T02:02:14.280Z,54.69
2023-08-23T02:04:47.201Z,54.74
2023-08-23T02:07:20.918Z,54.83
2023-08-23T02:09:53.346Z,54.80
2023-08-23T02:12:26.016Z,54.87
2023-08-23T02:14:58.432Z,54.93
2023-08-23T02:17:32.286Z,54.89
2023-08-23T02:20:04.966Z,54.87
2023-08-23T02:22:37.377Z,54.99
2023-08-23T02:25:12.014Z,55.00
2023-08-23T02:27:43.193Z,55.00
2023-08-23T02:30:16.943Z,54.91
2023-08-23T02:32:49.367Z,54.95
2023-08-23T02:35:21.813Z,55.06
2023-08-23T02:37:54.834Z,54.95
2023-08-23T02:40:28.278Z,55.07
2023-08-23T02:43:00.965Z,55.05
2023-08-23T02:45:33.677Z,55.04
2023-08-23T02:48:06.700Z,55.14
2023-08-23T02:50:39.209Z,55.17
2023-08-23T02:53:11.973Z,55.09
2023-08-23T02:55:44.398Z,55.09
2023-08-23T02:58:16.843Z,55.21
2023-08-23T03:00:49.280Z,55.18
2023-08-23T03:03:22.454Z,55.16
2023-08-23T03:05:57.469Z,55.10
2023-08-23T03:08:30.357Z,55.23
2023-08-23T03:11:06.801Z,55.35
2023-08-23T03:13:39.218Z,55.35
2023-08-23T03:16:11.996Z,55.41
2023-08-23T03:18:44.945Z,55.61
2023-08-23T03:21:17.545Z,55.52
2023-08-23T03:23:50.484Z,55.56
2023-08-23T03:26:22.993Z,55.52
2023-08-23T03:28:56.219Z,55.47
2023-08-23T03:31:29.400Z,55.53
2023-08-23T03:34:02.518Z,55.43
2023-08-23T03:36:36.409Z,55.60
2023-08-23T03:39:09.206Z,55.74
2023-08-23T03:41:41.496Z,55.85
2023-08-23T03:44:13.903Z,55.73
2023-08-23T03:46:46.986Z,55.76
2023-08-23T03:49:20.973Z,55.77
2023-08-23T03:51:53.362Z,55.76
2023-08-23T03:54:26.739Z,55.81
2023-08-23T03:56:59.797Z,55.90
2023-08-23T03:59:32.996Z,55.90
2023-08-23T04:02:06.388Z,55.99
2023-08-23T04:04:39.276Z,56.03
2023-08-23T04:07:14.420Z,56.08
2023-08-23T04:09:46.870Z,56.06
2023-08-23T04:12:19.502Z,55.98
2023-08-23T04:14:52.031Z,56.24
2023-08-23T04:17:25.343Z,56.37
2023-08-23T04:19:58.277Z,56.32
2023-08-23T04:22:32.106Z,56.32
2023-08-23T04:25:05.475Z,56.33
2023-08-23T04:27:38.217Z,56.33
2023-08-23T04:30:14.532Z,56.44
2023-08-23T04:32:47.526Z,56.28
2023-08-23T04:35:21.977Z,56.36
2023-08-23T04:37:55.206Z,56.39
2023-08-23T04:40:29.379Z,56.53
2023-08-23T04:43:01.930Z,56.58
2023-08-23T04:45:38.246Z,56.61
2023-08-23T04:48:13.311Z,56.65
2023-08-23T04:50:51.838Z,56.80
2023-08-23T04:53:24.913Z,56.81
2023-08-23T04:56:00.514Z,56.67
2023-08-23T04:58:32.913Z,56.80
2023-08-23T05:01:07.061Z,56.85
2023-08-23T05:03:42.945Z,56.85
2023-08-23T05:06:15.651Z,56.80
2023-08-23T05:08:48.387Z,56.97
2023-08-23T05:11:24.944Z,57.07
2023-08-23T05:13:57.958Z,57.03
2023-08-23T05:16:30.435Z,57.07
2023-08-23T05:19:03.607Z,57.12
2023-08-23T05:21:36.602Z,57.04
2023-08-23T05:24:09.400Z,57.10
2023-08-23T05:26:42.223Z,57.13
2023-08-23T05:29:15.562Z,57.08
2023-08-23T05:31:48.146Z,56.98
2023-08-23T05:34:20.659Z,57.10
2023-08-23T05:36:53.555Z,57.03
2023-08-23T05:39:26.018Z,57.12
2023-08-23T05:41:58.304Z,57.20
2023-08-23T05:44:30.696Z,57.26
2023-08-23T05:47:03.781Z,57.16
2023-08-23T05:49:36.233Z,57.21
2023-08-23T05:52:09.229Z,57.12
2023-08-23T05:54:42.830Z,57.02
2023-08-23T05:57:15.584Z,57.04
2023-08-23T05:59:48.562Z,57.00
2023-08-23T06:02:21.235Z,57.01
2023-08-23T06:04:54.519Z,56.88
2023-08-23T06:07:27.088Z,56.93
2023-08-23T06:09:59.913Z,56.88
2023-08-23T06:12:32.291Z,56.75
2023-08-23T06:15:05.576Z,56.55
2023-08-23T06:17:38.070Z,56.56
2023-08-23T06:20:13.282Z,56.54
2023-08-23T06:22:46.076Z,56.41
2023-08-23T06:25:18.635Z,56.45
2023-08-23T06:27:51.586Z,56.34
2023-08-23T06:30:24.977Z,56.16
2023-08-23T06:32:58.206Z,56.06
2023-08-23T06:35:31.055Z,55.89
2023-08-23T06:38:03.789Z,55.81
2023-08-23T06:40:36.383Z,55.80
2023-08-23T06:43:09.307Z,55.54
2023-08-23T06:45:41.673Z,55.34
2023-08-23T06:48:14.723Z,55.35
2023-08-23T06:50:48.083Z,55.25
2023-08-23T06:53:20.562Z,55.04
2023-08-23T06:55:53.045Z,54.76
2023-08-23T06:58:25.428Z,54.47
2023-08-23T07:01:00.360Z,54.35
2023-08-23T07:03:33.137Z,54.45
2023-08-23T07:06:07.051Z,54.30
2023-08-23T07:08:39.688Z,54.19
2023-08-23T07:11:12.811Z,54.08
2023-08-23T07:13:45.214Z,53.85
2023-08-23T07:16:18.058Z,53.69
2023-08-23T07:18:50.868Z,53.42
2023-08-23T07:21:23.958Z,53.19
2023-08-23T07:23:56.372Z,53.02
2023-08-23T07:26:29.010Z,52.94
2023-08-23T07:29:01.732Z,52.92
2023-08-23T07:31:34.629Z,52.49
2023-08-23T07:34:07.695Z,52.55
2023-08-23T07:36:40.161Z,52.23
2023-08-23T07:39:12.826Z,52.18
2023-08-23T07:41:45.524Z,51.84
2023-08-23T07:44:18.283Z,52.06
2023-08-23T07:46:50.664Z,51.23
2023-08-23T07:49:24.040Z,51.36
2023-08-23T07:51:56.534Z,50.92
2023-08-23T07:54:29.309Z,50.88
2023-08-23T07:57:02.077Z,50.58
2023-08-23T07:59:34.794Z,50.20
2023-08-23T08:02:08.452Z,49.11
2023-08-23T08:04:40.939Z,49.82
2023-08-23T08:07:21.033Z,49.88
2023-08-23T08:10:05.275Z,49.70
2023-08-23T08:12:38.058Z,49.26
2023-08-23T08:15:11.851Z,48.85
2023-08-23T08:17:45.242Z,48.55
2023-08-23T08:20:18.520Z,48.41
2023-08-23T08:22:51.758Z,48.50
2023-08-23T08:25:24.495Z,47.93
2023-08-23T08:27:57.304Z,47.22
2023-08-23T08:30:29.754Z,47.52
2023-08-23T08:33:02.920Z,46.68
2023-08-23T08:35:35.363Z,46.99
2023-08-23T08:38:08.035Z,47.28
2023-08-23T08:40:41.219Z,46.78
2023-08-23T08:43:14.131Z,46.53
2023-08-23T08:45:47.003Z,46.19
2023-08-23T08:48:19.707Z,45.78
2023-08-23T08:50:52.962Z,45.99
2023-08-23T08:53:27.795Z,45.76
2023-08-23T08:56:00.730Z,45.87
2023-08-23T08:58:35.675Z,45.45
2023-08-23T09:01:08.506Z,44.90
2023-08-23T09:03:42.159Z,45.02
2023-08-23T09:06:15.122Z,43.94
2023-08-23T09:08:48.546Z,44.16
2023-08-23T09:11:22.693Z,44.19
2023-08-23T09:13:56.477Z,44.28
2023-08-23T09:16:29.092Z,43.91
2023-08-23T09:19:02.329Z,43.60
2023-08-23T09:21:35.942Z,43.59
2023-08-23T09:24:08.615Z,43.85
2023-08-23T09:26:41.407Z,43.39
2023-08-23T09:29:14.365Z,42.93
2023-08-23T09:31:46.907Z,42.92
2023-08-23T09:34:20.052Z,42.75
2023-08-23T09:36:53.227Z,42.80
2023-08-23T09:39:27.202Z,42.85
2023-08-23T09:42:04.528Z,42.90
2023-08-23T09:44:41.976Z,42.60
2023-08-23T09:47:17.574Z,42.32
2023-08-23T09:49:52.629Z,42.63
2023-08-23T09:52:31.248Z,42.08
2023-08-23T09:55:15.000Z,41.64
2023-08-23T09:57:49.588Z,41.67
2023-08-23T10:00:20.900Z,41.45
2023-08-23T10:02:54.324Z,41.13
2023-08-23T10:05:29.193Z,41.54
2023-08-23T10:08:03.727Z,41.05
2023-08-23T10:10:36.746Z,41.26
2023-08-23T10:13:09.702Z,41.10
2023-08-23T10:15:43.829Z,40.84
2023-08-23T10:18:15.998Z,40.80
2023-08-23T10:20:48.619Z,40.73
2023-08-23T10:23:21.355Z,40.72
2023-08-23T10:25:53.735Z,40.55
2023-08-23T10:28:26.147Z,40.27
2023-08-23T10:31:15.261Z,40.42
2023-08-23T10:33:58.029Z,40.25
2023-08-23T10:36:32.444Z,39.58
2023-08-23T10:39:07.049Z,39.96
2023-08-23T10:41:41.072Z,39.76
2023-08-23T10:44:17.868Z,39.86
2023-08-23T10:46:53.111Z,40.00
2023-08-23T10:49:27.022Z,39.61
2023-08-23T10:51:59.740Z,39.72
2023-08-23T10:54:33.951Z,39.78
2023-08-23T10:57:05.104Z,39.68
2023-08-23T10:59:37.441Z,39.64
2023-08-23T11:02:10.742Z,39.25
2023-08-23T11:04:43.984Z,39.13
2023-08-23T11:07:16.861Z,38.77
2023-08-23T11:09:49.323Z,38.83
2023-08-23T11:12:21.822Z,38.42
2023-08-23T11:14:54.480Z,38.67
2023-08-23T11:17:27.340Z,38.46
2023-08-23T11:20:00.413Z,38.44
2023-08-23T11:22:33.199Z,38.56
2023-08-23T11:25:06.198Z,38.41
2023-08-23T11:27:39.256Z,37.99
2023-08-23T11:30:12.691Z,38.18
2023-08-23T11:32:47.279Z,38.30
2023-08-23T11:35:23.749Z,38.19
2023-08-23T11:37:58.621Z,38.05
2023-08-23T11:40:31.169Z,38.04
2023-08-23T11:43:20.288Z,38.08
2023-08-23T11:45:55.294Z,37.93
2023-08-23T11:48:27.826Z,37.55
2023-08-23T11:51:02.456Z,37.58
2023-08-23T11:53:35.240Z,37.27
2023-08-23T11:56:11.066Z,37.16
2023-08-23T11:58:43.639Z,36.66
2023-08-23T12:01:17.055Z,36.49
2023-08-23T12:03:49.575Z,36.70
2023-08-23T12:06:22.913Z,36.47
2023-08-23T12:08:56.838Z,36.47
2023-08-23T12:11:29.955Z,36.21
2023-08-23T12:14:07.323Z,36.09
2023-08-23T12:16:41.122Z,36.22
2023-08-23T12:19:25.811Z,36.38
2023-08-23T12:22:03.681Z,36.16
2023-08-23T12:24:36.370Z,36.28
2023-08-23T12:27:08.740Z,36.04
2023-08-23T12:29:42.664Z,35.92
2023-08-23T12:32:13.591Z,35.86
2023-08-23T12:34:46.166Z,36.32
2023-08-23T12:37:19.358Z,35.86
2023-08-23T12:39:52.151Z,35.74
2023-08-23T12:42:24.931Z,35.74
2023-08-23T12:44:57.698Z,35.56
2023-08-23T12:47:30.298Z,35.60
2023-08-23T12:50:03.713Z,35.42
2023-08-23T12:52:36.155Z,35.13
2023-08-23T12:55:09.999Z,35.13
2023-08-23T12:57:42.425Z,35.23
2023-08-23T13:00:30.427Z,34.70
2023-08-23T13:03:05.683Z,34.86
2023-08-23T13:05:38.086Z,34.94
2023-08-23T13:08:10.902Z,34.74
2023-08-23T13:10:43.802Z,34.80
2023-08-23T13:13:16.449Z,35.04
2023-08-23T13:15:49.030Z,34.92
2023-08-23T13:18:21.704Z,34.72
2023-08-23T13:20:54.401Z,34.54
2023-08-23T13:23:26.852Z,34.60
2023-08-23T13:25:59.537Z,34.41
2023-08-23T13:28:32.077Z,34.01
2023-08-23T13:31:05.992Z,34.38
2023-08-23T13:33:37.919Z,34.07
2023-08-23T13:36:10.500Z,34.66
2023-08-23T13:38:43.151Z,34.51
2023-08-23T13:41:15.630Z,34.46
2023-08-23T13:43:48.723Z,34.50
2023-08-23T13:46:22.096Z,34.54
2023-08-23T13:48:54.559Z,34.70
2023-08-23T13:51:27.214Z,34.53
2023-08-23T13:54:00.529Z,34.55
2023-08-23T13:56:33.643Z,34.63
2023-08-23T13:59:06.414Z,34.60
2023-08-23T14:01:39.297Z,34.64
2023-08-23T14:04:11.673Z,34.78
2023-08-23T14:06:44.120Z,34.74
2023-08-23T14:09:16.847Z,34.79
2023-08-23T14:11:58.080Z,34.67
2023-08-23T14:14:30.845Z,34.85
2023-08-23T14:17:03.214Z,34.77
2023-08-23T14:19:47.043Z,34.80
2023-08-23T14:22:20.268Z,34.84
2023-08-23T14:24:52.873Z,34.89
2023-08-23T14:27:25.242Z,34.97
2023-08-23T14:29:57.994Z,35.06
2023-08-23T14:32:30.522Z,35.08
2023-08-23T14:35:04.826Z,35.02
2023-08-23T14:37:37.592Z,35.02
2023-08-23T14:40:13.855Z,34.76
2023-08-23T14:42:47.506Z,34.99
2023-08-23T14:45:20.136Z,34.89
2023-08-23T14:47:52.964Z,34.96
2023-08-23T14:50:27.124Z,34.94
2023-08-23T14:53:00.066Z,34.92
2023-08-23T14:55:34.220Z,34.85
2023-08-23T14:58:05.121Z,34.77
2023-08-23T15:00:37.898Z,34.70
2023-08-23T15:03:10.446Z,34.71
2023-08-23T15:05:43.027Z,34.69
2023-08-23T15:08:15.422Z,34.54
2023-08-23T15:10:47.739Z,34.71
2023-08-23T15:13:21.251Z,34.56
2023-08-23T15:16:01.082Z,34.55
2023-08-23T15:18:33.922Z,34.55
2023-08-23T15:21:06.442Z,34.77
2023-08-23T15:23:38.928Z,34.65
2023-08-23T15:26:11.473Z,34.69
2023-08-23T15:28:54.972Z,34.66
2023-08-23T15:31:29.538Z,34.96
2023-08-23T15:34:02.240Z,34.91
2023-08-23T15:36:36.028Z,34.93
2023-08-23T15:39:08.410Z,34.78
2023-08-23T15:41:41.136Z,34.83
2023-08-23T15:44:13.987Z,35.00
2023-08-23T15:46:47.141Z,35.13
2023-08-23T15:49:19.682Z,35.01
2023-08-23T15:51:52.911Z,34.95
2023-08-23T15:54:25.458Z,35.08
2023-08-23T15:56:58.139Z,35.17
2023-08-23T15:59:30.545Z,35.12
2023-08-23T16:02:04.336Z,35.11
2023-08-23T16:04:36.804Z,35.19
2023-08-23T16:07:09.680Z,35.12
2023-08-23T16:09:42.117Z,35.17
2023-08-23T16:12:14.721Z,35.32
2023-08-23T16:14:48.286Z,35.39
2023-08-23T16:17:20.707Z,35.44
2023-08-23T16:19:53.369Z,35.42
2023-08-23T16:22:27.057Z,35.42
2023-08-23T16:25:00.160Z,35.66
2023-08-23T16:27:32.625Z,35.45
2023-08-23T16:30:07.894Z,35.85
2023-08-23T16:32:40.298Z,35.75
2023-08-23T16:35:13.660Z,35.69
2023-08-23T16:37:46.332Z,35.92
2023-08-23T16:40:18.795Z,36.23
2023-08-23T16:42:51.250Z,36.12
2023-08-23T16:45:24.230Z,36.53
2023-08-23T16:47:57.046Z,36.50
2023-08-23T16:50:29.455Z,36.42
2023-08-23T16:53:01.978Z,36.72
2023-08-23T16:55:37.145Z,36.55
2023-08-23T16:58:09.758Z,36.81
2023-08-23T17:00:42.222Z,36.86
2023-08-23T17:03:14.688Z,36.87
2023-08-23T17:05:47.904Z,37.10
2023-08-23T17:08:20.397Z,37.23
2023-08-23T17:10:52.891Z,37.28
2023-08-23T17:13:25.368Z,37.24
2023-08-23T17:15:58.000Z,37.64
2023-08-23T17:18:30.703Z,37.73
2023-08-23T17:21:04.017Z,37.91
2023-08-23T17:23:36.555Z,37.99
2023-08-23T17:26:09.048Z,38.06
2023-08-23T17:28:41.429Z,38.13
2023-08-23T17:31:15.381Z,38.34
2023-08-23T17:33:47.834Z,38.61
2023-08-23T17:36:20.281Z,38.66
2023-08-23T17:38:53.174Z,38.84
2023-08-23T17:41:25.446Z,39.01
2023-08-23T17:43:57.918Z,38.99
2023-08-23T17:46:40.261Z,38.97
2023-08-23T17:49:14.307Z,39.21
2023-08-23T17:51:47.450Z,39.22
2023-08-23T17:54:19.819Z,39.38
2023-08-23T17:56:52.425Z,39.56
2023-08-23T17:59:29.441Z,39.59
2023-08-23T18:02:02.013Z,39.58
2023-08-23T18:04:35.792Z,39.96
2023-08-23T18:07:08.408Z,39.87
2023-08-23T18:09:41.200Z,40.00
2023-08-23T18:12:13.681Z,40.11
2023-08-23T18:14:46.149Z,40.20
2023-08-23T18:17:18.471Z,40.34
2023-08-23T18:19:51.104Z,40.47
2023-08-23T18:22:24.076Z,40.60
2023-08-23T18:24:57.177Z,40.71
2023-08-23T18:27:30.343Z,40.82
2023-08-23T18:30:03.034Z,40.91
2023-08-23T18:32:35.851Z,41.01
2023-08-23T18:35:10.091Z,41.25
2023-08-23T18:37:42.911Z,41.45
2023-08-23T18:40:15.676Z,41.49
2023-08-23T18:42:48.605Z,41.61
2023-08-23T18:45:21.990Z,41.73
2023-08-23T18:47:55.324Z,41.78
2023-08-23T18:50:28.122Z,42.00
2023-08-23T18:53:00.630Z,42.14
2023-08-23T18:55:33.461Z,42.31
2023-08-23T18:58:06.195Z,42.35
2023-08-23T19:00:38.682Z,42.55
2023-08-23T19:03:14.600Z,42.73
2023-08-23T19:05:53.530Z,42.88
2023-08-23T19:08:25.995Z,42.95
2023-08-23T19:11:00.353Z,43.06
2023-08-23T19:13:31.179Z,43.13
2023-08-23T19:16:04.150Z,43.00
2023-08-23T19:18:36.936Z,43.37
2023-08-23T19:21:10.219Z,43.40
2023-08-23T19:23:42.696Z,43.52
2023-08-23T19:26:15.030Z,43.62
2023-08-23T19:28:48.074Z,43.62
2023-08-23T19:31:20.490Z,43.68
2023-08-23T19:33:52.985Z,43.78
2023-08-23T19:36:25.788Z,43.97
2023-08-23T19:38:58.904Z,44.08
2023-08-23T19:41:31.308Z,44.05
2023-08-23T19:44:03.741Z,44.18
2023-08-23T19:46:36.319Z,44.36
2023-08-23T19:49:08.878Z,44.45
2023-08-23T19:51:41.681Z,44.55
2023-08-23T19:54:14.085Z,44.62
2023-08-23T19:56:46.546Z,44.67
2023-08-23T19:59:19.496Z,44.77
2023-08-23T20:01:52.287Z,44.88
2023-08-23T20:04:25.301Z,44.91
2023-08-23T20:07:02.177Z,45.04
2023-08-23T20:09:34.579Z,45.12
2023-08-23T20:12:07.582Z,45.15
2023-08-23T20:14:40.353Z,45.32
2023-08-23T20:17:12.771Z,45.37
2023-08-23T20:19:45.225Z,45.49
2023-08-23T20:22:17.972Z,45.52
2023-08-23T20:24:53.016Z,45.51
2023-08-23T20:27:25.726Z,45.74
2023-08-23T20:30:01.069Z,45.90
2023-08-23T20:32:33.852Z,46.05
2023-08-23T20:35:08.031Z,46.10
2023-08-23T20:37:40.513Z,46.10
2023-08-23T20:40:14.905Z,46.18
2023-08-23T20:42:46.145Z,46.36
2023-08-23T20:45:18.955Z,46.24
2023-08-23T20:47:51.847Z,46.46
2023-08-23T20:50:24.999Z,46.40
2023-08-23T20:52:57.775Z,46.51
2023-08-23T20:55:31.033Z,46.71
2023-08-23T20:58:03.709Z,46.68
2023-08-23T21:00:36.140Z,46.82
2023-08-23T21:03:08.998Z,46.87
2023-08-23T21:05:45.920Z,46.83
2023-08-23T21:08:18.714Z,46.88
2023-08-23T21:10:51.406Z,46.98
2023-08-23T21:13:23.805Z,47.07
2023-08-23T21:15:56.961Z,46.98
2023-08-23T21:18:29.743Z,47.24
2023-08-23T21:21:02.284Z,47.27
2023-08-23T21:23:34.755Z,47.38
2023-08-23T21:26:07.988Z,47.44
2023-08-23T21:28:40.617Z,47.43
2023-08-23T21:31:13.372Z,47.42
2023-08-23T21:33:45.800Z,47.33
2023-08-23T21:36:18.263Z,47.41
2023-08-23T21:38:51.182Z,47.63
2023-08-23T21:41:23.560Z,47.67
2023-08-23T21:43:56.004Z,47.71
2023-08-23T21:46:29.172Z,47.82
2023-08-23T21:49:01.634Z,47.89
2023-08-23T21:51:34.103Z,47.82
2023-08-23T21:54:06.793Z,47.95
2023-08-23T21:56:40.006Z,48.11
2023-08-23T21:59:12.814Z,48.11
2023-08-23T22:01:45.222Z,48.08
2023-08-23T22:04:18.019Z,48.21
2023-08-23T22:06:50.380Z,48.38
2023-08-23T22:09:24.828Z,48.40
2023-08-23T22:11:57.324Z,48.38
2023-08-23T22:14:30.420Z,48.42
2023-08-23T22:17:03.247Z,48.48
2023-08-23T22:19:35.708Z,48.63
2023-08-23T22:22:08.432Z,48.65
2023-08-23T22:24:40.835Z,48.75
2023-08-23T22:27:13.260Z,48.72
2023-08-23T22:29:45.977Z,48.86
2023-08-23T22:32:18.468Z,48.89
2023-08-23T22:34:50.871Z,48.96
2023-08-23T22:37:23.724Z,48.99
2023-08-23T22:39:56.140Z,49.09
2023-08-23T22:42:29.048Z,49.06
2023-08-23T22:45:01.575Z,49.24
2023-08-23T22:47:34.511Z,49.21
2023-08-23T22:50:08.246Z,49.31
2023-08-23T22:52:40.740Z,49.38
2023-08-23T22:55:13.405Z,49.45
2023-08-23T22:57:46.153Z,49.56
2023-08-23T23:00:18.829Z,49.56
2023-08-23T23:02:51.407Z,49.55
2023-08-23T23:05:24.433Z,49.66
2023-08-23T23:07:57.533Z,49.73
2023-08-23T23:10:29.919Z,49.73
2023-08-23T23:13:03.962Z,49.85
2023-08-23T23:15:37.015Z,49.89
2023-08-23T23:18:09.814Z,49.86
2023-08-23T23:20:42.981Z,49.85
2023-08-23T23:23:15.847Z,50.16
2023-08-23T23:25:48.229Z,50.19
2023-08-23T23:28:20.672Z,50.03
2023-08-23T23:30:53.092Z,50.10
2023-08-23T23:33:27.110Z,50.42
2023-08-23T23:35:59.459Z,50.39
2023-08-23T23:38:31.816Z,50.45
2023-08-23T23:41:05.453Z,50.54
2023-08-23T23:43:38.225Z,50.61
2023-08-23T23:46:10.953Z,50.53
2023-08-23T23:48:43.336Z,50.66
2023-08-23T23:51:15.915Z,50.78
2023-08-23T23:53:48.943Z,50.96
2023-08-23T23:56:21.381Z,50.90
2023-08-23T23:58:53.847Z,50.78
